createdAt,value
2017-01-25T00:00:45.701Z,1.5
2017-01-25T00:01:51.754Z,1.5
2017-01-25T00:02:57.756Z,1.5
2017-01-25T00:04:03.758Z,1.5
2017-01-25T00:05:09.764Z,1.5
2017-01-25T00:06:15.767Z,1.4
2017-01-25T00:07:21.772Z,1.4
2017-01-25T00:08:27.776Z,1.4
2017-01-25T00:09:33.784Z,1.2
2017-01-25T00:10:39.786Z,1.3
2017-01-25T00:11:45.792Z,1.4
2017-01-25T00:12:51.793Z,1.4
2017-01-25T00:13:57.798Z,1.4
2017-01-25T00:15:03.801Z,1.4
2017-01-25T00:16:09.809Z,1.4
2017-01-25T00:17:15.822Z,1.4
2017-01-25T00:18:21.824Z,1.5
2017-01-25T00:19:27.833Z,1.5
2017-01-25T00:20:33.838Z,1.4
2017-01-25T00:21:39.835Z,1.5
2017-01-25T00:22:45.845Z,1.5
2017-01-25T00:23:51.851Z,1.5
2017-01-25T00:24:57.854Z,1.5
2017-01-25T00:26:03.863Z,1.3
2017-01-25T00:27:10.016Z,1.4
2017-01-25T00:28:15.997Z,1.3
2017-01-25T00:29:22.250Z,1.2
2017-01-25T00:30:28.255Z,1.2
2017-01-25T00:31:34.298Z,1.2
2017-01-25T00:32:40.304Z,1.2
2017-01-25T00:33:46.309Z,1.1
2017-01-25T00:34:52.312Z,1.3
2017-01-25T00:35:58.627Z,1.3
2017-01-25T00:37:04.608Z,1.5
2017-01-25T00:38:10.654Z,1.5
2017-01-25T00:39:16.660Z,1.5
2017-01-25T00:40:22.665Z,1.5
2017-01-25T00:41:28.668Z,1.5
2017-01-25T00:42:34.687Z,1.5
2017-01-25T00:43:40.683Z,1.4
2017-01-25T00:44:46.693Z,1.3
2017-01-25T00:45:52.694Z,1.2
2017-01-25T00:46:58.705Z,1.3
2017-01-25T00:48:04.935Z,1.2
2017-01-25T00:49:10.849Z,1.2
2017-01-25T00:50:16.857Z,1.4
2017-01-25T00:51:22.892Z,1.5
2017-01-25T00:52:28.869Z,1.4
2017-01-25T00:53:34.876Z,1.5
2017-01-25T00:54:40.885Z,1.5
2017-01-25T00:55:46.883Z,1.5
2017-01-25T00:56:52.882Z,1.5
2017-01-25T00:57:58.878Z,1.4
2017-01-25T00:59:05.069Z,1.4
2017-01-25T01:00:11.057Z,1.5
2017-01-25T01:01:17.061Z,1.5
2017-01-25T01:02:23.063Z,1.4
2017-01-25T01:03:29.070Z,1.5
2017-01-25T01:04:35.061Z,1.7
2017-01-25T01:05:41.060Z,1.5
2017-01-25T01:06:47.053Z,1.4
2017-01-25T01:07:53.059Z,1.2
2017-01-25T01:08:59.061Z,1.2
2017-01-25T01:10:05.057Z,1.2
2017-01-25T01:11:11.053Z,1.3
2017-01-25T01:12:17.055Z,1.4
2017-01-25T01:13:23.257Z,1.4
2017-01-25T01:14:29.253Z,1.5
2017-01-25T01:15:35.245Z,1.6
2017-01-25T01:16:46.448Z,1.6
2017-01-25T01:17:52.439Z,1.6
2017-01-25T01:18:58.448Z,1.6
2017-01-25T01:20:04.448Z,1.6
2017-01-25T01:21:10.450Z,1.6
2017-01-25T01:22:16.439Z,1.6
2017-01-25T01:23:22.449Z,1.5
2017-01-25T01:24:28.439Z,1.5
2017-01-25T01:25:34.435Z,1.6
2017-01-25T01:26:40.422Z,1.5
2017-01-25T01:27:46.430Z,1.5
2017-01-25T01:28:52.434Z,1.5
2017-01-25T01:29:58.428Z,1.6
2017-01-25T01:31:04.424Z,1.6
2017-01-25T01:32:10.425Z,1.3
2017-01-25T01:33:16.429Z,1.2
2017-01-25T01:34:22.426Z,1.2
2017-01-25T01:35:28.429Z,1.4
2017-01-25T01:36:34.425Z,1.5
2017-01-25T01:37:40.408Z,1.5
2017-01-25T01:38:46.404Z,1.3
2017-01-25T01:39:52.413Z,1.3
2017-01-25T01:40:58.417Z,1.2
2017-01-25T01:42:04.413Z,1.3
2017-01-25T01:43:10.408Z,1.2
2017-01-25T01:44:16.404Z,1.2
2017-01-25T01:45:22.409Z,1.3
2017-01-25T01:46:28.403Z,1.4
2017-01-25T01:47:34.396Z,1.4
2017-01-25T01:48:40.405Z,1.3
2017-01-25T01:49:46.406Z,1.3
2017-01-25T01:50:52.404Z,1.3
2017-01-25T01:51:58.395Z,1.5
2017-01-25T01:53:04.389Z,1.5
2017-01-25T01:54:10.392Z,1.4
2017-01-25T01:55:16.388Z,1.4
2017-01-25T01:56:22.391Z,1.5
2017-01-25T01:57:28.382Z,1.4
2017-01-25T01:58:34.386Z,1.3
2017-01-25T01:59:40.391Z,1.3
2017-01-25T02:00:46.394Z,1.4
2017-01-25T02:01:52.396Z,1.4
2017-01-25T02:02:58.388Z,1.4
2017-01-25T02:04:04.384Z,1.4
2017-01-25T02:05:10.405Z,1.5
2017-01-25T02:06:16.390Z,1.6
2017-01-25T02:07:22.389Z,1.6
2017-01-25T02:08:28.384Z,1.6
2017-01-25T02:09:34.386Z,1.7
2017-01-25T02:10:40.381Z,1.7
2017-01-25T02:11:46.377Z,1.6
2017-01-25T02:12:52.374Z,1.4
2017-01-25T02:13:58.375Z,1.3
2017-01-25T02:15:03.715Z,1.4
2017-01-25T02:16:09.710Z,1.4
2017-01-25T02:17:15.705Z,1.5
2017-01-25T02:18:21.706Z,1.5
2017-01-25T02:19:27.713Z,1.5
2017-01-25T02:20:33.704Z,1.6
2017-01-25T02:21:39.700Z,1.7
2017-01-25T02:22:45.694Z,1.5
2017-01-25T02:23:51.691Z,1.6
2017-01-25T02:24:57.687Z,1.5
2017-01-25T02:26:03.688Z,1.5
2017-01-25T02:27:09.697Z,1.6
2017-01-25T02:28:15.694Z,1.6
2017-01-25T02:29:21.689Z,1.5
2017-01-25T02:30:27.677Z,1.5
2017-01-25T02:31:33.686Z,1.6
2017-01-25T02:32:39.682Z,1.7
2017-01-25T02:33:45.678Z,1.6
2017-01-25T02:34:51.686Z,1.5
2017-01-25T02:35:57.690Z,1.6
2017-01-25T02:37:03.686Z,1.6
2017-01-25T02:38:09.687Z,1.6
2017-01-25T02:39:15.692Z,1.6
2017-01-25T02:40:21.687Z,1.6
2017-01-25T02:41:27.677Z,1.6
2017-01-25T02:42:33.688Z,1.5
2017-01-25T02:43:39.682Z,1.4
2017-01-25T02:44:45.678Z,1.3
2017-01-25T02:45:51.688Z,1.4
2017-01-25T02:46:57.690Z,1.4
2017-01-25T02:48:03.694Z,1.4
2017-01-25T02:49:09.681Z,1.4
2017-01-25T02:50:15.674Z,1.4
2017-01-25T02:51:21.683Z,1.5
2017-01-25T02:52:27.678Z,1.5
2017-01-25T02:53:33.672Z,1.5
2017-01-25T02:54:39.661Z,1.5
2017-01-25T02:55:45.669Z,1.5
2017-01-25T02:56:51.663Z,1.6
2017-01-25T02:57:57.662Z,1.5
2017-01-25T02:59:03.662Z,1.5
2017-01-25T03:00:09.670Z,1.4
2017-01-25T03:01:15.664Z,1.4
2017-01-25T03:02:21.662Z,1.3
2017-01-25T03:03:27.669Z,1.4
2017-01-25T03:04:33.663Z,1.5
2017-01-25T03:05:39.661Z,1.6
2017-01-25T03:06:45.657Z,1.6
2017-01-25T03:07:51.661Z,1.5
2017-01-25T03:08:57.649Z,1.6
2017-01-25T03:10:03.653Z,1.5
2017-01-25T03:11:09.656Z,1.4
2017-01-25T03:12:15.661Z,1.3
2017-01-25T03:13:21.653Z,1.5
2017-01-25T03:14:27.652Z,1.6
2017-01-25T03:15:33.646Z,1.6
2017-01-25T03:16:39.656Z,1.6
2017-01-25T03:17:45.653Z,1.7
2017-01-25T03:18:51.649Z,1.7
2017-01-25T03:19:57.647Z,1.7
2017-01-25T03:21:03.652Z,1.7
2017-01-25T03:22:09.645Z,1.6
2017-01-25T03:23:15.644Z,1.5
2017-01-25T03:24:21.636Z,1.5
2017-01-25T03:25:27.633Z,1.6
2017-01-25T03:26:33.632Z,1.6
2017-01-25T03:27:39.632Z,1.6
2017-01-25T03:28:45.633Z,1.6
2017-01-25T03:29:51.637Z,1.6
2017-01-25T03:30:57.639Z,1.7
2017-01-25T03:32:03.639Z,1.6
2017-01-25T03:33:09.635Z,1.5
2017-01-25T03:34:15.624Z,1.6
2017-01-25T03:35:21.623Z,1.7
2017-01-25T03:36:27.624Z,1.7
2017-01-25T03:37:32.957Z,1.7
2017-01-25T03:38:38.949Z,1.7
2017-01-25T03:39:44.948Z,1.6
2017-01-25T03:40:50.946Z,1.5
2017-01-25T03:41:56.277Z,1.4
2017-01-25T03:43:02.271Z,1.5
2017-01-25T03:44:08.267Z,1.6
2017-01-25T03:45:14.267Z,1.6
2017-01-25T03:46:20.273Z,1.6
2017-01-25T03:47:26.270Z,1.6
2017-01-25T03:48:32.265Z,1.6
2017-01-25T03:49:38.271Z,1.7
2017-01-25T03:50:44.264Z,1.7
2017-01-25T03:51:50.282Z,1.8
2017-01-25T03:52:56.259Z,1.7
2017-01-25T03:54:02.256Z,1.6
2017-01-25T03:55:08.258Z,1.6
2017-01-25T03:56:14.258Z,1.6
2017-01-25T03:57:20.407Z,1.4
2017-01-25T03:58:26.396Z,1.4
2017-01-25T03:59:32.401Z,1.5
2017-01-25T04:00:38.396Z,1.5
2017-01-25T04:01:44.391Z,1.4
2017-01-25T04:02:50.393Z,1.6
2017-01-25T04:03:56.393Z,1.5
2017-01-25T04:05:02.387Z,1.6
2017-01-25T04:06:08.382Z,1.7
2017-01-25T04:07:14.394Z,1.6
2017-01-25T04:08:20.383Z,1.5
2017-01-25T04:09:26.379Z,1.3
2017-01-25T04:10:32.376Z,1.4
2017-01-25T04:11:38.381Z,1.4
2017-01-25T04:12:44.372Z,1.3
2017-01-25T04:13:50.371Z,1.4
2017-01-25T04:14:56.373Z,1.4
2017-01-25T04:16:02.374Z,1.4
2017-01-25T04:17:08.364Z,1.3
2017-01-25T04:18:14.367Z,1.3
2017-01-25T04:19:20.371Z,1.4
2017-01-25T04:20:26.368Z,1.4
2017-01-25T04:21:32.367Z,1.4
2017-01-25T04:22:38.360Z,1.3
2017-01-25T04:23:44.357Z,1.2
2017-01-25T04:24:50.358Z,1.2
2017-01-25T04:25:56.351Z,1.2
2017-01-25T04:27:02.351Z,1.4
2017-01-25T04:28:08.351Z,1.4
2017-01-25T04:29:14.358Z,1.5
2017-01-25T04:30:20.349Z,1.5
2017-01-25T04:31:26.352Z,1.5
2017-01-25T04:32:32.345Z,1.5
2017-01-25T04:33:38.339Z,1.5
2017-01-25T04:34:44.336Z,1.5
2017-01-25T04:35:50.336Z,1.6
2017-01-25T04:36:56.329Z,1.5
2017-01-25T04:38:02.328Z,1.5
2017-01-25T04:39:08.332Z,1.5
2017-01-25T04:40:14.345Z,1.5
2017-01-25T04:41:20.326Z,1.5
2017-01-25T04:42:26.328Z,1.5
2017-01-25T04:43:32.328Z,1.4
2017-01-25T04:44:38.323Z,1.3
2017-01-25T04:45:44.312Z,1.3
2017-01-25T04:46:50.312Z,1.4
2017-01-25T04:47:56.308Z,1.4
2017-01-25T04:49:02.311Z,1.5
2017-01-25T04:50:08.310Z,1.6
2017-01-25T04:51:14.309Z,1.6
2017-01-25T04:52:20.308Z,1.6
2017-01-25T04:53:26.305Z,1.5
2017-01-25T04:54:32.324Z,1.5
2017-01-25T04:55:38.299Z,1.5
2017-01-25T04:56:44.303Z,1.6
2017-01-25T04:57:50.307Z,1.5
2017-01-25T04:58:56.310Z,1.4
2017-01-25T05:00:02.314Z,1.4
2017-01-25T05:01:08.314Z,1.4
2017-01-25T05:02:14.302Z,1.5
2017-01-25T05:03:20.296Z,1.6
2017-01-25T05:04:26.295Z,1.6
2017-01-25T05:05:32.292Z,1.6
2017-01-25T05:06:38.290Z,1.7
2017-01-25T05:07:44.293Z,1.7
2017-01-25T05:08:50.289Z,1.5
2017-01-25T05:09:56.289Z,1.6
2017-01-25T05:11:02.285Z,1.5
2017-01-25T05:12:08.280Z,1.5
2017-01-25T05:13:14.286Z,1.5
2017-01-25T05:14:20.284Z,1.6
2017-01-25T05:15:26.281Z,1.6
2017-01-25T05:16:32.279Z,1.6
2017-01-25T05:17:38.282Z,1.6
2017-01-25T05:18:44.277Z,1.6
2017-01-25T05:19:50.269Z,1.6
2017-01-25T05:20:56.266Z,1.7
2017-01-25T05:22:02.261Z,1.5
2017-01-25T05:23:08.255Z,1.4
2017-01-25T05:24:14.257Z,1.4
2017-01-25T05:25:20.257Z,1.5
2017-01-25T05:26:26.256Z,1.6
2017-01-25T05:27:32.249Z,1.6
2017-01-25T05:28:38.253Z,1.7
2017-01-25T05:29:44.250Z,1.7
2017-01-25T05:30:50.243Z,1.7
2017-01-25T05:31:56.237Z,1.7
2017-01-25T05:33:02.236Z,1.7
2017-01-25T05:34:08.236Z,1.7
2017-01-25T05:35:14.233Z,1.7
2017-01-25T05:36:20.231Z,1.7
2017-01-25T05:37:26.230Z,1.7
2017-01-25T05:38:32.234Z,1.7
2017-01-25T05:39:38.232Z,1.7
2017-01-25T05:40:44.224Z,1.7
2017-01-25T05:41:50.226Z,1.7
2017-01-25T05:42:56.227Z,1.7
2017-01-25T05:44:02.234Z,1.7
2017-01-25T05:45:08.238Z,1.6
2017-01-25T05:46:14.241Z,1.7
2017-01-25T05:47:20.237Z,1.7
2017-01-25T05:48:26.230Z,1.7
2017-01-25T05:49:32.229Z,1.7
2017-01-25T05:50:38.246Z,1.6
2017-01-25T05:51:44.229Z,1.6
2017-01-25T05:52:50.228Z,1.6
2017-01-25T05:53:56.230Z,1.5
2017-01-25T05:55:02.231Z,1.6
2017-01-25T05:56:08.232Z,1.6
2017-01-25T05:57:14.230Z,1.7
2017-01-25T05:58:20.230Z,1.7
2017-01-25T05:59:26.240Z,1.6
2017-01-25T06:00:32.234Z,1.5
2017-01-25T06:01:38.236Z,1.5
2017-01-25T06:02:44.231Z,1.5
2017-01-25T06:03:50.233Z,1.6
2017-01-25T06:04:56.236Z,1.6
2017-01-25T06:06:02.230Z,1.6
2017-01-25T06:07:08.230Z,1.4
2017-01-25T06:08:14.233Z,1.4
2017-01-25T06:09:20.231Z,1.5
2017-01-25T06:10:26.241Z,1.5
2017-01-25T06:11:32.236Z,1.4
2017-01-25T06:12:38.234Z,1.6
2017-01-25T06:13:44.218Z,1.6
2017-01-25T06:14:50.222Z,1.4
2017-01-25T06:15:56.224Z,1.5
2017-01-25T06:17:02.220Z,1.5
2017-01-25T06:18:08.221Z,1.7
2017-01-25T06:19:14.220Z,1.6
2017-01-25T06:20:20.216Z,1.6
2017-01-25T06:21:26.212Z,1.7
2017-01-25T06:22:32.219Z,1.6
2017-01-25T06:23:38.204Z,1.6
2017-01-25T06:24:44.213Z,1.7
2017-01-25T06:25:50.209Z,1.6
2017-01-25T06:26:56.200Z,1.5
2017-01-25T06:28:02.195Z,1.5
2017-01-25T06:29:08.192Z,1.5
2017-01-25T06:30:14.189Z,1.6
2017-01-25T06:31:20.187Z,1.6
2017-01-25T06:32:26.192Z,1.6
2017-01-25T06:33:32.195Z,1.5
2017-01-25T06:34:37.532Z,1.6
2017-01-25T06:35:43.542Z,1.6
2017-01-25T06:36:49.536Z,1.6
2017-01-25T06:37:55.533Z,1.6
2017-01-25T06:39:01.529Z,1.7
2017-01-25T06:40:07.534Z,1.7
2017-01-25T06:41:13.527Z,1.7
2017-01-25T06:42:19.525Z,1.6
2017-01-25T06:43:25.521Z,1.6
2017-01-25T06:44:31.517Z,1.6
2017-01-25T06:45:37.523Z,1.6
2017-01-25T06:46:43.529Z,1.6
2017-01-25T06:47:49.526Z,1.6
2017-01-25T06:48:55.528Z,1.7
2017-01-25T06:50:01.526Z,1.5
2017-01-25T06:51:06.430Z,1.5
2017-01-25T06:52:12.425Z,1.4
2017-01-25T06:53:18.423Z,1.5
2017-01-25T06:54:24.417Z,1.5
2017-01-25T06:55:30.414Z,1.6
2017-01-25T06:56:36.411Z,1.5
2017-01-25T06:57:42.411Z,1.4
2017-01-25T06:58:48.406Z,1.4
2017-01-25T06:59:54.403Z,1.5
2017-01-25T07:01:00.405Z,1.6
2017-01-25T07:02:06.404Z,1.5
2017-01-25T07:03:12.407Z,1.5
2017-01-25T07:04:18.407Z,1.4
2017-01-25T07:05:24.413Z,1.5
2017-01-25T07:06:30.414Z,1.5
2017-01-25T07:07:36.412Z,1.6
2017-01-25T07:08:42.403Z,1.4
2017-01-25T07:09:48.403Z,1.4
2017-01-25T07:10:54.405Z,1.5
2017-01-25T07:12:00.412Z,1.5
2017-01-25T07:13:06.405Z,1.6
2017-01-25T07:14:12.401Z,1.6
2017-01-25T07:15:19.815Z,1.7
2017-01-25T07:16:25.815Z,1.5
2017-01-25T07:17:31.816Z,1.5
2017-01-25T07:18:37.824Z,1.5
2017-01-25T07:19:43.815Z,1.5
2017-01-25T07:20:49.807Z,1.5
2017-01-25T07:21:55.822Z,1.6
2017-01-25T07:23:01.826Z,1.5
2017-01-25T07:24:07.817Z,1.5
2017-01-25T07:25:13.812Z,1.6
2017-01-25T07:26:19.815Z,1.6
2017-01-25T07:27:25.811Z,1.6
2017-01-25T07:28:31.810Z,1.6
2017-01-25T07:29:37.801Z,1.7
2017-01-25T07:30:43.809Z,1.6
2017-01-25T07:31:49.808Z,1.6
2017-01-25T07:32:55.808Z,1.6
2017-01-25T07:34:01.813Z,1.4
2017-01-25T07:35:07.799Z,1.5
2017-01-25T07:36:13.791Z,1.5
2017-01-25T07:37:19.794Z,1.4
2017-01-25T07:38:25.788Z,1.5
2017-01-25T07:39:31.782Z,1.4
2017-01-25T07:40:37.794Z,1.5
2017-01-25T07:41:43.796Z,1.4
2017-01-25T07:42:49.791Z,1.4
2017-01-25T07:43:55.788Z,1.4
2017-01-25T07:45:01.784Z,1.4
2017-01-25T07:46:07.787Z,1.5
2017-01-25T07:47:13.769Z,1.5
2017-01-25T07:48:19.771Z,1.6
2017-01-25T07:49:25.779Z,1.7
2017-01-25T07:50:31.779Z,1.6
2017-01-25T07:51:37.787Z,1.6
2017-01-25T07:52:43.794Z,1.4
2017-01-25T07:53:49.791Z,1.5
2017-01-25T07:54:55.791Z,1.4
2017-01-25T07:56:01.785Z,1.6
2017-01-25T07:57:07.782Z,1.6
2017-01-25T07:58:13.785Z,1.6
2017-01-25T07:59:19.793Z,1.7
2017-01-25T08:00:25.788Z,1.8
2017-01-25T08:01:31.784Z,1.7
2017-01-25T08:02:37.788Z,1.8
2017-01-25T08:03:43.780Z,1.8
2017-01-25T08:04:49.775Z,1.8
2017-01-25T08:05:55.772Z,1.8
2017-01-25T08:07:01.779Z,1.9
2017-01-25T08:08:07.770Z,1.7
2017-01-25T08:09:13.770Z,1.8
2017-01-25T08:10:19.774Z,1.8
2017-01-25T08:11:25.774Z,1.8
2017-01-25T08:12:31.763Z,1.8
2017-01-25T08:13:37.768Z,1.6
2017-01-25T08:14:43.770Z,1.5
2017-01-25T08:15:49.779Z,1.6
2017-01-25T08:16:55.768Z,1.6
2017-01-25T08:18:01.770Z,1.7
2017-01-25T08:19:07.772Z,1.7
2017-01-25T08:20:13.768Z,1.7
2017-01-25T08:21:19.765Z,1.7
2017-01-25T08:22:25.756Z,1.8
2017-01-25T08:23:31.763Z,1.4
2017-01-25T08:24:37.756Z,1.5
2017-01-25T08:25:43.754Z,1.6
2017-01-25T08:26:49.763Z,1.6
2017-01-25T08:27:55.765Z,1.5
2017-01-25T08:29:01.764Z,1.6
2017-01-25T08:30:07.763Z,1.5
2017-01-25T08:31:13.767Z,1.7
2017-01-25T08:32:19.758Z,1.8
2017-01-25T08:33:25.757Z,1.8
2017-01-25T08:34:31.756Z,1.7
2017-01-25T08:35:37.760Z,1.6
2017-01-25T08:36:43.756Z,1.7
2017-01-25T08:37:49.759Z,1.7
2017-01-25T08:38:55.752Z,1.7
2017-01-25T08:40:01.753Z,1.7
2017-01-25T08:41:07.748Z,1.6
2017-01-25T08:42:13.741Z,1.6
2017-01-25T08:43:19.739Z,1.7
2017-01-25T08:44:25.737Z,1.8
2017-01-25T08:45:31.747Z,1.7
2017-01-25T08:46:37.738Z,1.7
2017-01-25T08:47:43.730Z,1.8
2017-01-25T08:48:49.731Z,1.8
2017-01-25T08:49:55.726Z,1.7
2017-01-25T08:51:01.720Z,1.7
2017-01-25T08:52:07.717Z,1.7
2017-01-25T08:53:13.719Z,1.8
2017-01-25T08:54:19.710Z,1.8
2017-01-25T08:55:25.712Z,1.9
2017-01-25T08:56:31.707Z,1.9
2017-01-25T08:57:37.707Z,1.9
2017-01-25T08:58:43.700Z,2
2017-01-25T08:59:49.697Z,2
2017-01-25T09:00:55.692Z,2
2017-01-25T09:02:01.693Z,1.9
2017-01-25T09:03:07.688Z,1.9
2017-01-25T09:04:13.685Z,1.8
2017-01-25T09:05:19.690Z,1.8
2017-01-25T09:06:25.688Z,1.9
2017-01-25T09:07:31.687Z,1.9
2017-01-25T09:08:37.688Z,1.9
2017-01-25T09:09:43.681Z,2
2017-01-25T09:10:49.676Z,1.9
2017-01-25T09:11:55.677Z,2
2017-01-25T09:13:01.678Z,1.9
2017-01-25T09:14:07.671Z,2
2017-01-25T09:15:13.004Z,2
2017-01-25T09:16:19.002Z,2
2017-01-25T09:17:25.002Z,2.1
2017-01-25T09:18:31.006Z,2
2017-01-25T09:19:37.010Z,2.1
2017-01-25T09:20:43.012Z,2
2017-01-25T09:21:49.040Z,2
2017-01-25T09:22:55.016Z,2.1
2017-01-25T09:24:01.013Z,2.1
2017-01-25T09:25:07.017Z,2.1
2017-01-25T09:26:13.005Z,2.1
2017-01-25T09:27:19.001Z,2.1
2017-01-25T09:28:25.001Z,2.2
2017-01-25T09:29:30.996Z,2.3
2017-01-25T09:30:37.006Z,2.2
2017-01-25T09:31:42.993Z,2.2
2017-01-25T09:32:48.993Z,2.2
2017-01-25T09:33:54.980Z,2.2
2017-01-25T09:35:00.987Z,2.3
2017-01-25T09:36:06.980Z,2.1
2017-01-25T09:37:12.985Z,2.2
2017-01-25T09:38:18.985Z,2.2
2017-01-25T09:39:24.994Z,2.2
2017-01-25T09:40:30.983Z,2.3
2017-01-25T09:41:36.982Z,2.3
2017-01-25T09:42:42.986Z,2.4
2017-01-25T09:43:48.994Z,2.4
2017-01-25T09:44:54.998Z,2.4
2017-01-25T09:46:01.020Z,2.4
2017-01-25T09:47:06.991Z,2.4
2017-01-25T09:48:12.986Z,2.5
2017-01-25T09:49:18.991Z,2.6
2017-01-25T09:50:24.991Z,2.5
2017-01-25T09:51:30.991Z,2.4
2017-01-25T09:52:36.993Z,2.5
2017-01-25T09:53:42.992Z,2.2
2017-01-25T09:54:48.994Z,2.1
2017-01-25T09:55:54.999Z,2.3
2017-01-25T09:57:00.991Z,2.3
2017-01-25T09:58:06.984Z,2.4
2017-01-25T09:59:12.991Z,2.5
2017-01-25T10:00:18.981Z,2.5
2017-01-25T10:01:24.986Z,2.6
2017-01-25T10:02:30.977Z,2.5
2017-01-25T10:03:36.984Z,2.6
2017-01-25T10:04:42.986Z,2.5
2017-01-25T10:05:48.981Z,2.5
2017-01-25T10:06:54.980Z,2.5
2017-01-25T10:08:00.985Z,2.4
2017-01-25T10:09:06.981Z,2.5
2017-01-25T10:10:12.981Z,2.3
2017-01-25T10:11:18.982Z,2.1
2017-01-25T10:12:24.977Z,2.2
2017-01-25T10:13:30.976Z,2.4
2017-01-25T10:14:36.973Z,2.4
2017-01-25T10:15:42.967Z,2.4
2017-01-25T10:16:48.978Z,2.4
2017-01-25T10:17:54.968Z,2.3
2017-01-25T10:19:00.962Z,2.4
2017-01-25T10:20:06.958Z,2.5
2017-01-25T10:21:12.954Z,2.5
2017-01-25T10:22:18.949Z,2.4
2017-01-25T10:23:24.951Z,2.4
2017-01-25T10:24:30.958Z,2.5
2017-01-25T10:25:36.958Z,2.6
2017-01-25T10:26:42.954Z,2.6
2017-01-25T10:27:48.951Z,2.4
2017-01-25T10:28:54.957Z,2.3
2017-01-25T10:30:00.957Z,2.3
2017-01-25T10:31:06.953Z,2.4
2017-01-25T10:32:12.947Z,2.4
2017-01-25T10:33:18.943Z,2.3
2017-01-25T10:34:24.938Z,2.4
2017-01-25T10:35:30.938Z,2.5
2017-01-25T10:36:36.941Z,2.6
2017-01-25T10:37:42.938Z,2.6
2017-01-25T10:38:48.940Z,2.6
2017-01-25T10:39:54.944Z,2.7
2017-01-25T10:41:00.947Z,2.6
2017-01-25T10:42:06.944Z,2.7
2017-01-25T10:43:12.943Z,2.7
2017-01-25T10:44:18.941Z,2.6
2017-01-25T10:45:24.939Z,2.6
2017-01-25T10:46:30.939Z,2.6
2017-01-25T10:47:36.934Z,2.6
2017-01-25T10:48:42.939Z,2.5
2017-01-25T10:49:48.935Z,2.6
2017-01-25T10:50:54.940Z,2.6
2017-01-25T10:52:00.935Z,2.7
2017-01-25T10:53:06.938Z,2.4
2017-01-25T10:54:12.933Z,2.4
2017-01-25T10:55:18.927Z,2.5
2017-01-25T10:56:24.931Z,2.6
2017-01-25T10:57:30.935Z,2.5
2017-01-25T10:58:36.931Z,2.5
2017-01-25T10:59:42.933Z,2.7
2017-01-25T11:00:48.935Z,2.8
2017-01-25T11:01:54.944Z,2.8
2017-01-25T11:03:00.935Z,2.8
2017-01-25T11:04:06.927Z,2.7
2017-01-25T11:05:12.919Z,2.6
2017-01-25T11:06:18.918Z,2.6
2017-01-25T11:07:24.924Z,2.4
2017-01-25T11:08:30.916Z,2.3
2017-01-25T11:09:36.912Z,2.4
2017-01-25T11:10:42.908Z,2.4
2017-01-25T11:11:48.910Z,2.5
2017-01-25T11:12:54.900Z,2.6
2017-01-25T11:14:00.901Z,2.6
2017-01-25T11:15:06.903Z,2.8
2017-01-25T11:16:12.896Z,2.7
2017-01-25T11:17:18.897Z,2.8
2017-01-25T11:18:24.898Z,2.9
2017-01-25T11:19:30.902Z,2.9
2017-01-25T11:20:36.892Z,3
2017-01-25T11:21:42.896Z,2.9
2017-01-25T11:22:48.894Z,2.9
2017-01-25T11:23:54.888Z,2.9
2017-01-25T11:25:00.879Z,3
2017-01-25T11:26:06.886Z,3.1
2017-01-25T11:27:12.891Z,3.1
2017-01-25T11:28:18.885Z,3.1
2017-01-25T11:29:24.885Z,3.1
2017-01-25T11:30:30.880Z,2.9
2017-01-25T11:31:36.883Z,2.8
2017-01-25T11:32:42.878Z,2.8
2017-01-25T11:33:48.877Z,2.9
2017-01-25T11:34:54.881Z,2.9
2017-01-25T11:36:00.882Z,3.1
2017-01-25T11:37:06.871Z,3.2
2017-01-25T11:38:12.873Z,3.2
2017-01-25T11:39:18.872Z,3.2
2017-01-25T11:40:24.866Z,3.2
2017-01-25T11:41:30.858Z,3.1
2017-01-25T11:42:36.861Z,3.1
2017-01-25T11:43:42.865Z,3.1
2017-01-25T11:44:48.852Z,3
2017-01-25T11:45:54.857Z,3.1
2017-01-25T11:47:00.858Z,3.1
2017-01-25T11:48:06.855Z,3.1
2017-01-25T11:49:12.847Z,3.1
2017-01-25T11:50:18.841Z,3.2
2017-01-25T11:51:24.838Z,3.1
2017-01-25T11:52:30.837Z,3
2017-01-25T11:53:36.834Z,3
2017-01-25T11:54:42.835Z,3.1
2017-01-25T11:55:48.828Z,3.2
2017-01-25T11:56:54.827Z,3.2
2017-01-25T11:58:00.835Z,3
2017-01-25T11:59:06.827Z,2.9
2017-01-25T12:00:12.826Z,2.9
2017-01-25T12:01:18.829Z,3.1
2017-01-25T12:02:24.823Z,3.1
2017-01-25T12:03:30.821Z,3.2
2017-01-25T12:04:36.847Z,3.2
2017-01-25T12:05:42.826Z,3.1
2017-01-25T12:06:48.819Z,3.1
2017-01-25T12:07:54.823Z,3.2
2017-01-25T12:09:00.820Z,3.2
2017-01-25T12:10:06.813Z,3.2
2017-01-25T12:11:12.810Z,3.3
2017-01-25T12:12:18.816Z,3.4
2017-01-25T12:13:24.811Z,3.4
2017-01-25T12:14:30.814Z,3.4
2017-01-25T12:15:36.816Z,3.5
2017-01-25T12:16:42.812Z,3.4
2017-01-25T12:17:48.804Z,3.4
2017-01-25T12:18:54.798Z,3.2
2017-01-25T12:20:00.803Z,3.2
2017-01-25T12:21:06.803Z,3.2
2017-01-25T12:22:12.795Z,3.3
2017-01-25T12:23:18.794Z,3.4
2017-01-25T12:24:24.790Z,3.3
2017-01-25T12:25:30.791Z,3.3
2017-01-25T12:26:36.790Z,3.2
2017-01-25T12:27:42.789Z,3
2017-01-25T12:28:48.791Z,3
2017-01-25T12:29:54.792Z,3.2
2017-01-25T12:31:00.787Z,3.3
2017-01-25T12:32:06.787Z,3.4
2017-01-25T12:33:12.786Z,3.4
2017-01-25T12:34:18.789Z,3.4
2017-01-25T12:35:24.779Z,3.2
2017-01-25T12:36:30.779Z,3
2017-01-25T12:37:36.774Z,3.1
2017-01-25T12:38:42.775Z,3.3
2017-01-25T12:39:48.776Z,3.4
2017-01-25T12:40:54.769Z,3.4
2017-01-25T12:42:00.771Z,3.4
2017-01-25T12:43:06.773Z,3.4
2017-01-25T12:44:12.803Z,3.5
2017-01-25T12:45:18.774Z,3.5
2017-01-25T12:46:24.774Z,3.6
2017-01-25T12:47:30.780Z,3.6
2017-01-25T12:48:36.770Z,3.5
2017-01-25T12:49:42.773Z,3.4
2017-01-25T12:50:48.772Z,3.5
2017-01-25T12:51:54.770Z,3.5
2017-01-25T12:53:00.761Z,3.6
2017-01-25T12:54:06.764Z,3.5
2017-01-25T12:55:12.759Z,3.5
2017-01-25T12:56:18.756Z,3.6
2017-01-25T12:57:24.756Z,3.6
2017-01-25T12:58:30.762Z,3.4
2017-01-25T12:59:36.760Z,3.5
2017-01-25T13:00:42.751Z,3.6
2017-01-25T13:01:51.114Z,3.5
2017-01-25T13:02:55.007Z,3.6
2017-01-25T13:04:04.125Z,3.5
2017-01-25T13:05:15.819Z,3.7
2017-01-25T13:06:21.845Z,3.9
2017-01-25T13:07:33.050Z,3.8
2017-01-25T13:08:39.041Z,3.8
2017-01-25T13:09:45.047Z,3.7
2017-01-25T13:10:51.047Z,3.7
2017-01-25T13:11:57.049Z,3.6
2017-01-25T13:13:03.050Z,3.4
2017-01-25T13:14:09.052Z,3.6
2017-01-25T13:15:15.045Z,3.6
2017-01-25T13:16:21.042Z,3.7
2017-01-25T13:17:27.035Z,3.8
2017-01-25T13:18:33.052Z,3.8
2017-01-25T13:19:39.046Z,3.7
2017-01-25T13:20:45.853Z,3.7
2017-01-25T13:21:52.018Z,3.7
2017-01-25T13:22:58.346Z,3.6
2017-01-25T13:24:04.636Z,3.6
2017-01-25T13:25:10.697Z,3.5
2017-01-25T13:26:16.759Z,3.6
2017-01-25T13:27:22.729Z,3.7
2017-01-25T13:28:28.938Z,3.5
2017-01-25T13:29:35.464Z,3.5
2017-01-25T13:30:42.346Z,3.5
2017-01-25T13:32:57.557Z,3.5
2017-01-25T13:34:03.796Z,3.4
2017-01-25T13:35:09.136Z,3.2
2017-01-25T13:36:15.137Z,3.1
2017-01-25T13:37:21.139Z,3.2
2017-01-25T13:38:27.133Z,3.4
2017-01-25T13:39:33.140Z,3.5
2017-01-25T13:41:47.840Z,3.6
2017-01-25T13:42:53.832Z,3.5
2017-01-25T13:43:59.838Z,3.6
2017-01-25T13:45:05.838Z,3.6
2017-01-25T13:46:11.840Z,3.5
2017-01-25T13:47:18.461Z,3.6
2017-01-25T13:48:25.128Z,3.5
2017-01-25T13:49:34.767Z,3.5
2017-01-25T13:50:40.765Z,3.4
2017-01-25T13:51:47.122Z,3.5
2017-01-25T13:52:52.873Z,3.5
2017-01-25T13:53:58.869Z,3.5
2017-01-25T13:55:04.863Z,3.6
2017-01-25T13:56:10.859Z,3.6
2017-01-25T13:57:16.859Z,3.6
2017-01-25T13:58:22.857Z,3.6
2017-01-25T13:59:28.859Z,3.6
2017-01-25T14:00:34.867Z,3.6
2017-01-25T14:01:40.856Z,3.7
2017-01-25T14:02:46.861Z,3.6
2017-01-25T14:03:52.857Z,3.5
2017-01-25T14:04:58.856Z,3.6
2017-01-25T14:06:04.858Z,3.6
2017-01-25T14:07:10.857Z,3.6
2017-01-25T14:08:16.857Z,3.7
2017-01-25T14:09:22.854Z,3.5
2017-01-25T14:10:28.855Z,3.6
2017-01-25T14:11:34.851Z,3.4
2017-01-25T14:12:40.847Z,3.5
2017-01-25T14:13:46.856Z,3.6
2017-01-25T14:14:52.855Z,3.6
2017-01-25T14:15:58.853Z,3.7
2017-01-25T14:17:04.850Z,3.7
2017-01-25T14:18:10.852Z,3.6
2017-01-25T14:19:16.854Z,3.6
2017-01-25T14:20:22.852Z,3.4
2017-01-25T14:21:28.849Z,3.3
2017-01-25T14:22:34.842Z,3.4
2017-01-25T14:23:41.881Z,3.2
2017-01-25T14:25:10.370Z,3.3
2017-01-25T14:28:56.468Z,3.3
2017-01-25T14:30:13.724Z,3.1
2017-01-25T14:31:35.080Z,3.3
2017-01-25T14:33:09.356Z,3.1
2017-01-25T14:34:25.126Z,3.2
2017-01-25T14:35:36.485Z,3.3
2017-01-25T14:39:13.119Z,3
2017-01-25T14:40:24.181Z,3.1
2017-01-25T14:41:31.220Z,3.1
2017-01-25T14:42:37.919Z,3.2
2017-01-25T14:43:44.445Z,3.2
2017-01-25T14:44:50.981Z,3.2
2017-01-25T14:45:57.439Z,3.1
2017-01-25T14:47:04.014Z,3
2017-01-25T14:48:11.123Z,2.9
2017-01-25T14:49:17.415Z,3
2017-01-25T14:50:23.407Z,3
2017-01-25T14:51:29.414Z,3
2017-01-25T14:52:35.412Z,3
2017-01-25T14:53:41.594Z,3.1
2017-01-25T14:54:47.587Z,3.1
2017-01-25T14:55:53.585Z,3.1
2017-01-25T14:56:59.581Z,3.1
2017-01-25T14:58:05.586Z,3
2017-01-25T14:59:11.590Z,2.9
2017-01-25T15:00:17.580Z,2.8
2017-01-25T15:01:23.577Z,2.8
2017-01-25T15:02:29.572Z,2.8
2017-01-25T15:03:35.570Z,2.9
2017-01-25T15:04:41.575Z,2.9
2017-01-25T15:05:47.573Z,3
2017-01-25T15:06:53.570Z,3.1
2017-01-25T15:07:59.569Z,3.1
2017-01-25T15:09:05.570Z,3.1
2017-01-25T15:10:11.568Z,3.1
2017-01-25T15:11:17.562Z,3
2017-01-25T15:12:23.571Z,2.9
2017-01-25T15:13:29.571Z,2.8
2017-01-25T15:14:35.589Z,2.7
2017-01-25T15:15:41.565Z,2.7
2017-01-25T15:16:47.566Z,2.7
2017-01-25T15:17:53.569Z,2.8
2017-01-25T15:18:59.563Z,2.9
2017-01-25T15:20:05.560Z,2.8
2017-01-25T15:21:11.553Z,2.8